Airfield :
LOGIN :

Register | Disclaimer

   EN    FR    IT 

 










Legend :    VFR   Marginal VFR   IFR   Intensive IFR   Very Intensive IFR
Visi :
Ceiling :
>= 8 km
>= 3000ft
5 to 8 km
1000 to 3000 ft
1500m to 5 km
500 to 1000 ft
800 to 1500m
200 to 500 ft
< 800m
< 200 ft
Symbols :   Thunderstorms  Fog  Heavy snow  Heavy precipitations  Wind > 20 kt
SIGMETs :     Misc.  Thunderstorms  Icing  Turbulence  Mountain Waves  Volcanic Ashes






- Airport Elevation : 74 ft
- IATA code : LRH


LFBH - La Rochelle Ile de Ré

CURRENT METAR :
  • 271430Z AUTO 30024KT 9999 SCT026 BKN032 12/07 Q1010 NOSIG

EXPIRED METARs :
  • 271400Z AUTO 30025KT 9999 OVC026 12/07 Q1009 BECMG 32015KT
  • 271330Z AUTO 31025KT 9999 BKN026 12/08 Q1009 BECMG 32015KT
  • 271300Z AUTO 31029G39KT 9999 BKN020 12/07 Q1008 TEMPO BKN014 BECMG 32015KT
  • 271230Z AUTO 30026KT 9000 BKN020 12/09 Q1007 TEMPO BKN014 BECMG 32015KT
  • 271200Z AUTO 30028KT 9000 BKN012 OVC021 12/10 Q1006 TEMPO 30025G40KT

TAF TAF LFBH
Valid from the 27 at 12:00 until the 28 at 12:00 UTC


271100Z 2712/2812 30020G30KT 9999 SCT016 BKN030
TEMPO 2712/2714 30025G40KT BKN014
BECMG 2714/2717 32015KT
BECMG 2718/2721 27005KT
BECMG 2722/2801 18005KT
BECMG 2803/2805 BKN010
TEMPO 2805/2812 2000 -DZ BKN005
ATIS : +33 5 46 00 13 92



MET'MAP, your aeronautical weather chart ! - Copyright ORBIFLY December 2007 - Disclaimer

ORBIFLY MET'MAP TEAM :

Programming & Development : Alexandra Zaïnal
Concept & original design : Baudouin d'Aumeries
Assistance for programming : Marc-Olivier Méhu
Technical & hardware support : Manuel Goepfert

Contact : metmap@orbifly.com




SOURCES & CREDITS :

   NOAA